createdAt,value
2023-03-06T00:00:14.853Z,7.68
2023-03-06T00:03:19.359Z,9.07
2023-03-06T00:06:23.487Z,9.13
2023-03-06T00:09:27.781Z,8.57
2023-03-06T00:12:35.011Z,11.98
2023-03-06T00:15:40.720Z,7.97
2023-03-06T00:18:45.163Z,10.02
2023-03-06T00:21:49.262Z,8.32
2023-03-06T00:24:55.770Z,8.13
2023-03-06T00:27:59.056Z,7.15
2023-03-06T00:31:04.583Z,7.53
2023-03-06T00:34:08.290Z,7.32
2023-03-06T00:40:26.474Z,6.78
2023-03-06T00:43:42.040Z,10.80
2023-03-06T00:46:47.572Z,9.85
2023-03-06T00:49:52.002Z,10.68
2023-03-06T00:52:55.720Z,7.65
2023-03-06T00:55:59.233Z,6.38
2023-03-06T00:59:02.931Z,5.90
2023-03-06T01:02:11.410Z,4.80
2023-03-06T01:05:20.078Z,4.75
2023-03-06T01:08:25.018Z,4.47
2023-03-06T01:11:29.958Z,2.78
2023-03-06T01:14:33.758Z,8.18
2023-03-06T01:17:38.988Z,6.85
2023-03-06T01:20:51.185Z,5.45
2023-03-06T01:23:56.249Z,5.72
2023-03-06T01:27:01.681Z,4.78
2023-03-06T01:30:06.400Z,5.43
2023-03-06T01:33:11.831Z,3.38
2023-03-06T01:36:15.456Z,3.53
2023-03-06T01:42:23.577Z,5.33
2023-03-06T01:46:04.875Z,4.72
2023-03-06T01:49:18.500Z,7.20
2023-03-06T01:52:26.417Z,6.40
2023-03-06T01:55:39.577Z,3.63
2023-03-06T01:58:46.226Z,6.05
2023-03-06T02:01:51.461Z,6.00
2023-03-06T02:04:56.826Z,4.15
2023-03-06T02:08:01.335Z,5.55
2023-03-06T02:11:15.127Z,4.70
2023-03-06T02:14:19.725Z,5.00
2023-03-06T02:17:25.427Z,4.88
2023-03-06T02:20:38.072Z,9.30
2023-03-06T02:23:57.632Z,5.65
2023-03-06T02:27:05.843Z,7.75
2023-03-06T02:30:13.512Z,7.53
2023-03-06T02:33:19.542Z,5.65
2023-03-06T02:36:23.731Z,4.05
2023-03-06T02:39:31.928Z,4.43
2023-03-06T02:42:38.660Z,4.78
2023-03-06T02:45:53.289Z,4.65
2023-03-06T02:48:57.605Z,5.18
2023-03-06T02:52:01.516Z,4.93
2023-03-06T02:55:06.063Z,6.10
2023-03-06T02:58:11.796Z,6.43
2023-03-06T03:01:16.335Z,6.50
2023-03-06T03:04:20.658Z,6.20
2023-03-06T03:07:25.022Z,7.10
2023-03-06T03:10:28.795Z,5.78
2023-03-06T03:13:34.608Z,6.60
2023-03-06T03:16:39.212Z,8.90
2023-03-06T03:19:42.979Z,3.42
2023-03-06T03:22:50.156Z,5.20
2023-03-06T03:25:55.499Z,4.63
2023-03-06T03:29:00.535Z,5.03
2023-03-06T03:32:04.999Z,8.13
2023-03-06T03:35:10.694Z,6.68
2023-03-06T03:38:14.613Z,5.60
2023-03-06T03:41:18.355Z,6.38
2023-03-06T03:44:24.477Z,7.22
2023-03-06T03:47:28.107Z,6.95
2023-03-06T03:50:31.809Z,5.45
2023-03-06T03:53:36.744Z,10.10
2023-03-06T03:59:46.812Z,6.57
2023-03-06T04:02:50.702Z,7.55
2023-03-06T04:08:59.759Z,5.93
2023-03-06T04:12:06.531Z,5.65
2023-03-06T04:15:12.394Z,7.88
2023-03-06T04:18:17.697Z,5.78
2023-03-06T04:21:22.921Z,9.10
2023-03-06T04:27:30.717Z,6.07
2023-03-06T04:30:35.962Z,8.23
2023-03-06T04:33:40.062Z,5.65
2023-03-06T04:36:45.217Z,5.82
2023-03-06T04:39:49.449Z,7.13
2023-03-06T04:42:52.841Z,9.75
2023-03-06T04:45:59.637Z,6.72
2023-03-06T04:49:03.825Z,7.38
2023-03-06T04:52:07.918Z,7.78
2023-03-06T04:55:14.814Z,7.45
2023-03-06T04:58:19.647Z,11.80
2023-03-06T05:01:24.842Z,7.32
2023-03-06T05:04:28.788Z,6.20
2023-03-06T05:07:39.969Z,6.47
2023-03-06T05:10:45.433Z,6.30
2023-03-06T05:13:49.445Z,5.50
2023-03-06T05:26:10.839Z,4.95
2023-03-06T05:29:14.726Z,7.65
2023-03-06T05:35:25.775Z,4.13
2023-03-06T05:38:30.163Z,5.75
2023-03-06T05:41:38.050Z,5.18
2023-03-06T05:44:42.075Z,7.38
2023-03-06T05:47:49.957Z,6.60
2023-03-06T05:50:59.174Z,7.10
2023-03-06T05:54:03.225Z,7.93
2023-03-06T05:57:06.750Z,13.82
2023-03-06T06:00:14.700Z,9.95
2023-03-06T06:03:19.328Z,9.43
2023-03-06T06:06:22.196Z,7.65
2023-03-06T06:09:26.057Z,5.82
2023-03-06T06:15:32.069Z,11.20
2023-03-06T06:19:03.714Z,9.23
2023-03-06T06:22:08.336Z,9.80
2023-03-06T06:25:12.045Z,8.07
2023-03-06T06:28:15.913Z,6.70
2023-03-06T06:34:24.990Z,7.18
2023-03-06T06:37:28.788Z,9.23
2023-03-06T06:40:32.307Z,7.55
2023-03-06T06:43:37.228Z,6.82
2023-03-06T06:50:08.115Z,8.00
2023-03-06T06:53:11.586Z,14.27
2023-03-06T06:56:15.412Z,9.40
2023-03-06T07:02:22.190Z,9.15
2023-03-06T07:05:26.931Z,6.10
2023-03-06T07:08:30.872Z,8.75
2023-03-06T07:14:41.441Z,8.17
2023-03-06T07:17:45.350Z,12.45
2023-03-06T07:20:54.724Z,6.28
2023-03-06T07:24:00.463Z,7.10
2023-03-06T07:27:03.855Z,6.15
2023-03-06T07:30:09.577Z,14.85
2023-03-06T07:33:14.372Z,7.45
2023-03-06T07:36:20.500Z,10.10
2023-03-06T07:39:24.416Z,8.68
2023-03-06T07:45:33.345Z,9.27
2023-03-06T07:48:37.999Z,8.38
2023-03-06T07:51:42.635Z,6.50
2023-03-06T07:54:46.099Z,8.82
2023-03-06T07:57:52.506Z,11.88
2023-03-06T08:00:56.071Z,8.43
2023-03-06T08:04:02.288Z,11.90
2023-03-06T08:07:07.482Z,11.35
2023-03-06T08:10:15.140Z,6.90
2023-03-06T08:13:18.482Z,8.23
2023-03-06T08:16:33.970Z,11.32
2023-03-06T08:19:39.809Z,4.90
2023-03-06T08:22:45.044Z,9.48
2023-03-06T08:25:57.071Z,7.80
2023-03-06T08:29:03.621Z,6.47
2023-03-06T08:32:07.906Z,5.53
2023-03-06T08:35:12.184Z,5.15
2023-03-06T08:38:22.016Z,8.40
2023-03-06T08:41:28.703Z,3.70
2023-03-06T08:44:33.057Z,7.47
2023-03-06T08:47:41.922Z,8.57
2023-03-06T08:50:45.576Z,4.20
2023-03-06T08:53:53.275Z,5.70
2023-03-06T08:56:56.852Z,6.07
2023-03-06T09:00:00.452Z,4.38
2023-03-06T09:03:06.610Z,4.82
2023-03-06T09:06:10.209Z,5.60
2023-03-06T09:09:15.799Z,2.17
2023-03-06T09:12:19.375Z,5.63
2023-03-06T09:15:29.336Z,6.40
2023-03-06T09:18:32.817Z,2.78
2023-03-06T09:21:36.038Z,2.70
2023-03-06T09:24:40.888Z,5.90
2023-03-06T09:27:44.352Z,3.65
2023-03-06T09:30:48.596Z,8.88
2023-03-06T09:33:52.066Z,5.20
2023-03-06T09:36:57.697Z,4.30
2023-03-06T09:40:04.229Z,4.43
2023-03-06T09:43:21.850Z,3.58
2023-03-06T09:46:39.577Z,3.72
2023-03-06T09:50:01.717Z,3.78
2023-03-06T09:53:26.612Z,5.72
2023-03-06T09:56:40.850Z,4.72
2023-03-06T09:59:55.682Z,2.30
2023-03-06T10:03:15.840Z,5.68
2023-03-06T10:06:28.066Z,4.95
2023-03-06T10:09:45.962Z,3.58
2023-03-06T10:13:07.599Z,3.47
2023-03-06T10:16:30.374Z,4.15
2023-03-06T10:19:37.834Z,3.60
2023-03-06T10:23:00.555Z,4.05
2023-03-06T10:26:18.406Z,7.60
2023-03-06T10:29:56.358Z,3.50
2023-03-06T10:33:19.078Z,2.65
2023-03-06T10:36:27.939Z,6.50
2023-03-06T10:39:31.728Z,3.05
2023-03-06T10:42:35.580Z,4.33
2023-03-06T10:45:51.349Z,6.53
2023-03-06T10:49:00.793Z,3.78
2023-03-06T10:52:08.398Z,5.13
2023-03-06T10:55:28.425Z,2.10
2023-03-06T10:58:34.137Z,3.03
2023-03-06T11:01:41.155Z,4.50
2023-03-06T11:04:54.376Z,6.75
2023-03-06T11:08:00.609Z,4.03
2023-03-06T11:11:12.681Z,4.97
2023-03-06T11:14:19.479Z,2.90
2023-03-06T11:17:32.143Z,3.65
2023-03-06T11:20:51.608Z,2.70
2023-03-06T11:24:01.947Z,6.95
2023-03-06T11:27:23.224Z,5.38
2023-03-06T11:30:35.940Z,3.70
2023-03-06T11:33:50.911Z,3.35
2023-03-06T11:37:02.200Z,4.78
2023-03-06T11:40:18.845Z,2.45
2023-03-06T11:43:35.212Z,2.17
2023-03-06T11:46:43.361Z,3.65
2023-03-06T11:50:02.306Z,3.72
2023-03-06T11:53:11.870Z,4.38
2023-03-06T11:56:35.923Z,3.33
2023-03-06T12:00:12.588Z,1.90
2023-03-06T12:04:02.597Z,4.18
2023-03-06T12:07:28.838Z,3.13
2023-03-06T12:10:42.587Z,4.22
2023-03-06T12:14:04.268Z,3.97
2023-03-06T12:17:36.613Z,7.55
2023-03-06T12:21:05.173Z,2.25
2023-03-06T12:24:32.531Z,4.53
2023-03-06T12:27:50.978Z,5.55
2023-03-06T12:31:45.195Z,2.22
2023-03-06T12:35:23.635Z,4.03
2023-03-06T12:38:54.702Z,4.22
2023-03-06T12:42:23.115Z,3.95
2023-03-06T12:45:33.052Z,5.82
2023-03-06T12:48:41.080Z,6.75
2023-03-06T12:51:47.262Z,3.92
2023-03-06T12:54:51.807Z,5.75
2023-03-06T12:57:57.312Z,3.72
2023-03-06T13:01:09.180Z,4.72
2023-03-06T13:04:49.085Z,3.58
2023-03-06T13:08:18.998Z,4.55
2023-03-06T13:11:55.588Z,4.35
2023-03-06T13:15:33.471Z,4.28
2023-03-06T13:19:11.475Z,3.65
2023-03-06T13:22:29.033Z,7.10
2023-03-06T13:25:48.842Z,5.75
2023-03-06T13:28:54.988Z,6.03
2023-03-06T13:32:20.522Z,3.47
2023-03-06T13:35:56.270Z,3.15
2023-03-06T13:39:09.588Z,3.15
2023-03-06T13:42:28.848Z,3.20
2023-03-06T13:45:39.023Z,4.63
2023-03-06T13:48:46.304Z,6.80
2023-03-06T13:52:09.861Z,4.05
2023-03-06T13:55:27.711Z,5.65
2023-03-06T13:59:06.115Z,3.38
2023-03-06T14:02:50.413Z,4.25
2023-03-06T14:05:56.226Z,3.75
2023-03-06T14:09:01.571Z,8.65
2023-03-06T14:12:19.118Z,3.63
2023-03-06T14:15:26.920Z,6.45
2023-03-06T14:18:39.204Z,3.90
2023-03-06T14:21:56.939Z,7.82
2023-03-06T14:25:14.992Z,2.53
2023-03-06T14:28:27.921Z,5.20
2023-03-06T14:31:37.492Z,4.00
2023-03-06T14:34:47.209Z,2.35
2023-03-06T14:37:57.375Z,3.92
2023-03-06T14:41:01.512Z,4.57
2023-03-06T14:47:26.643Z,4.13
2023-03-06T14:50:35.222Z,5.60
2023-03-06T14:53:40.464Z,6.18
2023-03-06T14:56:47.040Z,2.25
2023-03-06T14:59:58.395Z,2.50
2023-03-06T15:03:06.143Z,2.63
2023-03-06T15:06:15.983Z,3.78
2023-03-06T15:09:31.997Z,3.60
2023-03-06T15:12:38.947Z,3.13
2023-03-06T15:15:43.060Z,1.67
2023-03-06T15:18:59.071Z,2.05
2023-03-06T15:22:03.084Z,3.88
2023-03-06T15:25:30.146Z,1.52
2023-03-06T15:28:38.758Z,3.75
2023-03-06T15:31:45.694Z,2.03
2023-03-06T15:35:09.789Z,1.90
2023-03-06T15:38:28.583Z,5.57
2023-03-06T15:41:37.718Z,4.82
2023-03-06T15:44:41.634Z,3.15
2023-03-06T15:47:47.380Z,3.72
2023-03-06T15:50:51.697Z,2.20
2023-03-06T15:54:09.761Z,1.60
2023-03-06T15:57:24.925Z,2.72
2023-03-06T16:00:34.250Z,5.63
2023-03-06T16:03:39.093Z,2.30
2023-03-06T16:06:44.636Z,1.85
2023-03-06T16:09:47.959Z,4.38
2023-03-06T16:12:58.532Z,4.25
2023-03-06T16:16:04.165Z,7.38
2023-03-06T16:19:25.885Z,5.05
2023-03-06T16:22:33.696Z,3.38
2023-03-06T16:25:41.035Z,3.25
2023-03-06T16:28:47.422Z,2.65
2023-03-06T16:31:51.899Z,1.27
2023-03-06T16:34:55.399Z,5.22
2023-03-06T16:38:02.154Z,6.30
2023-03-06T16:41:07.098Z,4.47
2023-03-06T16:44:12.454Z,9.43
2023-03-06T16:47:16.230Z,4.32
2023-03-06T16:50:29.280Z,2.17
2023-03-06T16:53:33.188Z,6.10
2023-03-06T16:56:48.058Z,3.85
2023-03-06T16:59:55.363Z,4.25
2023-03-06T17:03:05.684Z,5.50
2023-03-06T17:06:21.087Z,2.60
2023-03-06T17:09:25.626Z,10.93
2023-03-06T17:12:29.422Z,6.38
2023-03-06T17:15:46.956Z,1.80
2023-03-06T17:19:00.901Z,6.55
2023-03-06T17:22:05.960Z,9.00
2023-03-06T17:25:13.315Z,8.45
2023-03-06T17:28:18.465Z,6.05
2023-03-06T17:31:28.223Z,6.45
2023-03-06T17:34:33.425Z,11.77
2023-03-06T17:37:38.667Z,10.05
2023-03-06T17:41:00.553Z,7.88
2023-03-06T17:44:16.440Z,10.18
2023-03-06T17:50:33.741Z,12.88
2023-03-06T17:53:40.960Z,13.05
2023-03-06T17:56:44.960Z,9.50
2023-03-06T17:59:56.934Z,11.07
2023-03-06T18:03:06.082Z,8.00
2023-03-06T18:06:14.713Z,12.82
2023-03-06T18:09:20.240Z,11.52
2023-03-06T18:12:24.369Z,14.35
2023-03-06T18:18:44.159Z,11.38
2023-03-06T18:21:48.174Z,9.77
2023-03-06T18:27:56.948Z,16.95
2023-03-06T18:31:08.488Z,11.85
2023-03-06T18:35:09.479Z,30.23
2023-03-06T18:38:28.288Z,20.13
2023-03-06T18:41:46.108Z,22.75
2023-03-06T18:45:03.731Z,21.48
2023-03-06T18:48:16.627Z,21.92
2023-03-06T18:51:30.068Z,19.70
2023-03-06T18:54:41.162Z,19.63
2023-03-06T18:57:45.052Z,18.17
2023-03-06T19:00:53.831Z,21.55
2023-03-06T19:04:05.220Z,21.90
2023-03-06T19:07:16.237Z,27.10
2023-03-06T19:10:25.521Z,26.70
2023-03-06T19:13:39.754Z,20.27
2023-03-06T19:16:43.410Z,22.80
2023-03-06T19:19:51.359Z,21.85
2023-03-06T19:22:57.534Z,23.35
2023-03-06T19:26:02.243Z,26.13
2023-03-06T19:29:08.226Z,25.52
2023-03-06T19:32:12.998Z,25.58
2023-03-06T19:35:23.219Z,28.67
2023-03-06T19:38:28.456Z,32.60
2023-03-06T19:41:32.473Z,39.05
2023-03-06T19:47:41.617Z,32.17
2023-03-06T19:50:45.426Z,28.15
2023-03-06T19:53:50.467Z,28.20
2023-03-06T19:56:54.595Z,26.58
2023-03-06T20:00:01.881Z,25.52
2023-03-06T20:03:11.519Z,28.65
2023-03-06T20:06:17.448Z,27.85
2023-03-06T20:09:24.476Z,27.10
2023-03-06T20:12:28.591Z,22.42
2023-03-06T20:18:47.876Z,20.42
2023-03-06T20:21:51.571Z,22.58
2023-03-06T20:24:58.646Z,20.45
2023-03-06T20:28:14.105Z,15.48
2023-03-06T20:31:21.107Z,18.77
2023-03-06T20:34:26.262Z,13.75
2023-03-06T20:37:30.549Z,18.05
2023-03-06T20:40:39.357Z,13.80
2023-03-06T20:43:43.061Z,12.95
2023-03-06T20:46:47.040Z,13.65
2023-03-06T20:49:51.306Z,11.63
2023-03-06T20:56:01.079Z,12.03
2023-03-06T20:59:05.923Z,13.85
2023-03-06T21:02:12.064Z,12.05
2023-03-06T21:05:16.127Z,7.95
2023-03-06T21:08:21.232Z,13.35
2023-03-06T21:11:51.150Z,4.85
2023-03-06T21:14:55.788Z,7.35
2023-03-06T21:18:04.603Z,8.50
2023-03-06T21:21:11.117Z,9.02
2023-03-06T21:24:15.192Z,6.15
2023-03-06T21:30:29.093Z,9.48
2023-03-06T21:33:34.715Z,5.38
2023-03-06T21:36:40.891Z,6.43
2023-03-06T21:39:45.114Z,5.60
2023-03-06T21:49:41.436Z,7.00
2023-03-06T21:52:48.767Z,3.85
2023-03-06T21:59:37.183Z,6.93
2023-03-06T22:02:42.827Z,5.55
2023-03-06T22:05:46.481Z,8.38
2023-03-06T22:08:50.737Z,5.10
2023-03-06T22:11:54.751Z,6.45
2023-03-06T22:15:02.220Z,7.45
2023-03-06T22:18:07.409Z,5.15
2023-03-06T22:21:16.496Z,7.50
2023-03-06T22:24:23.832Z,5.32
2023-03-06T22:27:32.126Z,3.72
2023-03-06T22:30:40.794Z,6.60
2023-03-06T22:33:46.582Z,4.22
2023-03-06T22:36:50.721Z,8.38
2023-03-06T22:39:54.789Z,6.97
2023-03-06T22:42:59.046Z,6.53
2023-03-06T22:46:09.719Z,6.95
2023-03-06T22:49:19.270Z,6.03
2023-03-06T22:52:22.655Z,10.15
2023-03-06T22:55:27.372Z,7.80
2023-03-06T22:58:37.210Z,6.03
2023-03-06T23:01:43.310Z,4.85
2023-03-06T23:04:52.416Z,2.67
2023-03-06T23:07:56.244Z,9.90
2023-03-06T23:11:00.440Z,8.07
2023-03-06T23:14:07.062Z,14.00
2023-03-06T23:17:12.712Z,3.85
2023-03-06T23:20:16.495Z,9.68
2023-03-06T23:23:19.975Z,4.10
2023-03-06T23:26:29.024Z,7.50
2023-03-06T23:29:33.041Z,5.50
2023-03-06T23:32:38.119Z,7.35
2023-03-06T23:35:43.637Z,4.55
2023-03-06T23:38:48.954Z,6.40
2023-03-06T23:41:52.796Z,5.35
2023-03-06T23:44:56.482Z,5.88
2023-03-06T23:48:01.944Z,8.85
2023-03-06T23:51:09.440Z,6.20
2023-03-06T23:54:13.032Z,5.88
2023-03-06T23:57:16.820Z,4.63
